createdAt,value
2022-08-14T00:02:01.264Z,1.83
2022-08-14T00:04:32.087Z,1.73
2022-08-14T00:07:04.563Z,1.70
2022-08-14T00:09:39.550Z,1.53
2022-08-14T00:12:23.459Z,1.37
2022-08-14T00:14:54.925Z,1.10
2022-08-14T00:17:24.178Z,1.63
2022-08-14T00:19:53.839Z,1.33
2022-08-14T00:22:57.172Z,1.40
2022-08-14T00:25:11.233Z,1.20
2022-08-14T00:27:39.538Z,1.00
2022-08-14T00:30:08.396Z,1.50
2022-08-14T00:32:53.478Z,1.13
2022-08-14T00:36:34.285Z,1.17
2022-08-14T00:38:14.542Z,1.17
2022-08-14T00:40:46.353Z,1.10
2022-08-14T00:43:15.267Z,1.23
2022-08-14T00:45:51.513Z,1.10
2022-08-14T00:48:34.676Z,1.33
2022-08-14T00:51:07.025Z,1.47
2022-08-14T00:53:36.230Z,1.13
2022-08-14T00:56:07.054Z,1.23
2022-08-14T00:58:45.271Z,1.40
2022-08-14T01:01:18.828Z,0.90
2022-08-14T01:03:49.690Z,1.10
2022-08-14T01:06:23.205Z,1.17
2022-08-14T01:08:59.210Z,1.20
2022-08-14T01:11:35.353Z,1.10
2022-08-14T01:14:25.250Z,1.40
2022-08-14T01:16:55.422Z,1.20
2022-08-14T01:19:41.823Z,0.97
2022-08-14T01:22:13.122Z,1.10
2022-08-14T01:24:41.515Z,1.00
2022-08-14T01:27:18.128Z,1.20
2022-08-14T01:29:59.240Z,1.13
2022-08-14T01:32:35.560Z,1.20
2022-08-14T01:35:18.633Z,1.30
2022-08-14T01:37:58.182Z,1.10
2022-08-14T01:40:36.551Z,1.10
2022-08-14T01:43:14.336Z,1.10
2022-08-14T01:45:42.888Z,1.00
2022-08-14T01:48:20.893Z,1.17
2022-08-14T01:50:49.823Z,1.30
2022-08-14T01:53:20.578Z,1.50
2022-08-14T01:55:51.692Z,1.20
2022-08-14T01:58:28.819Z,1.00
2022-08-14T02:00:58.626Z,1.47
2022-08-14T02:03:29.552Z,1.20
2022-08-14T02:06:03.534Z,1.50
2022-08-14T02:08:52.470Z,1.40
2022-08-14T02:11:25.933Z,1.40
2022-08-14T02:13:58.813Z,1.17
2022-08-14T02:16:27.709Z,1.30
2022-08-14T02:18:56.505Z,1.40
2022-08-14T02:21:28.066Z,1.30
2022-08-14T02:23:57.730Z,1.10
2022-08-14T02:26:29.750Z,1.73
2022-08-14T02:29:00.672Z,1.37
2022-08-14T02:31:42.412Z,1.13
2022-08-14T02:34:22.474Z,1.07
2022-08-14T02:37:04.485Z,1.23
2022-08-14T02:39:37.464Z,1.50
2022-08-14T02:42:06.545Z,1.40
2022-08-14T02:44:41.230Z,1.70
2022-08-14T02:47:14.963Z,1.37
2022-08-14T02:49:50.644Z,1.40
2022-08-14T02:52:56.285Z,1.40
2022-08-14T02:55:19.984Z,1.80
2022-08-14T02:57:57.817Z,1.47
2022-08-14T03:00:27.317Z,1.60
2022-08-14T03:02:58.994Z,1.60
2022-08-14T03:05:33.132Z,1.57
2022-08-14T03:08:08.391Z,1.40
2022-08-14T03:10:41.650Z,1.63
2022-08-14T03:13:19.139Z,1.77
2022-08-14T03:15:54.939Z,1.43
2022-08-14T03:18:30.912Z,2.10
2022-08-14T03:21:00.476Z,2.00
2022-08-14T03:23:34.093Z,1.50
2022-08-14T03:26:07.140Z,1.60
2022-08-14T03:28:36.669Z,1.80
2022-08-14T03:31:08.208Z,2.20
2022-08-14T03:33:40.454Z,1.73
2022-08-14T03:37:37.718Z,1.97
2022-08-14T03:39:12.266Z,1.60
2022-08-14T03:41:47.971Z,1.60
2022-08-14T03:45:19.297Z,1.70
2022-08-14T03:47:06.663Z,1.60
2022-08-14T03:49:42.253Z,1.43
2022-08-14T03:52:37.602Z,1.40
2022-08-14T03:54:59.932Z,1.40
2022-08-14T03:57:32.376Z,1.50
2022-08-14T04:00:03.048Z,1.50
2022-08-14T04:02:33.019Z,1.70
2022-08-14T04:05:12.262Z,1.60
2022-08-14T04:08:00.125Z,1.70
2022-08-14T04:10:32.145Z,1.77
2022-08-14T04:13:03.707Z,1.93
2022-08-14T04:15:56.481Z,1.30
2022-08-14T04:18:20.910Z,1.30
2022-08-14T04:20:54.288Z,1.27
2022-08-14T04:23:32.851Z,1.47
2022-08-14T04:26:02.567Z,1.40
2022-08-14T04:29:07.565Z,1.43
2022-08-14T04:32:56.404Z,1.67
2022-08-14T04:34:16.908Z,1.50
2022-08-14T04:36:59.627Z,1.70
2022-08-14T04:39:46.431Z,1.57
2022-08-14T04:42:33.318Z,1.60
2022-08-14T04:45:02.975Z,1.43
2022-08-14T04:47:53.665Z,1.40
2022-08-14T04:50:33.627Z,1.47
2022-08-14T04:53:02.285Z,1.50
2022-08-14T04:55:30.901Z,1.40
2022-08-14T04:57:59.341Z,1.17
2022-08-14T05:00:28.986Z,1.63
2022-08-14T05:02:58.491Z,1.50
2022-08-14T05:05:26.819Z,1.50
2022-08-14T05:08:09.783Z,1.60
2022-08-14T05:10:42.221Z,1.60
2022-08-14T05:13:15.705Z,1.73
2022-08-14T05:15:47.984Z,2.00
2022-08-14T05:18:17.521Z,1.70
2022-08-14T05:21:57.965Z,2.20
2022-08-14T05:23:54.740Z,1.80
2022-08-14T05:26:23.801Z,2.67
2022-08-14T05:28:52.060Z,3.13
2022-08-14T05:31:21.697Z,3.67
2022-08-14T05:33:56.640Z,2.80
2022-08-14T05:36:27.053Z,3.50
2022-08-14T05:38:55.470Z,3.40
2022-08-14T05:41:23.780Z,3.67
2022-08-14T05:44:12.063Z,3.27
2022-08-14T05:46:41.814Z,2.63
2022-08-14T05:49:11.032Z,2.57
2022-08-14T05:51:41.192Z,2.70
2022-08-14T05:54:13.877Z,2.37
2022-08-14T05:56:55.532Z,2.53
2022-08-14T05:59:36.872Z,2.50
2022-08-14T06:02:10.077Z,2.53
2022-08-14T06:04:38.904Z,2.30
2022-08-14T06:07:07.340Z,2.40
2022-08-14T06:09:40.627Z,2.40
2022-08-14T06:12:09.662Z,2.00
2022-08-14T06:14:38.787Z,2.07
2022-08-14T06:17:08.533Z,2.00
2022-08-14T06:19:36.799Z,1.77
2022-08-14T06:22:05.269Z,2.20
2022-08-14T06:24:35.694Z,2.10
2022-08-14T06:27:06.137Z,1.87
2022-08-14T06:29:38.555Z,1.83
2022-08-14T06:32:38.114Z,2.23
2022-08-14T06:35:02.594Z,2.40
2022-08-14T06:37:42.660Z,1.60
2022-08-14T06:40:16.639Z,1.80
2022-08-14T06:42:54.812Z,2.03
2022-08-14T06:45:26.339Z,1.97
2022-08-14T06:47:58.601Z,1.77
2022-08-14T06:50:28.730Z,2.30
2022-08-14T06:52:58.642Z,1.50
2022-08-14T06:55:28.229Z,1.60
2022-08-14T06:57:58.127Z,1.77
2022-08-14T07:00:30.929Z,1.97
2022-08-14T07:03:19.105Z,2.10
2022-08-14T07:05:55.443Z,2.13
2022-08-14T07:08:26.451Z,1.87
2022-08-14T07:10:59.566Z,1.93
2022-08-14T07:13:28.334Z,1.80
2022-08-14T07:15:58.550Z,2.10
2022-08-14T07:18:28.698Z,1.60
2022-08-14T07:20:57.015Z,1.77
2022-08-14T07:23:25.942Z,2.17
2022-08-14T07:25:54.750Z,2.10
2022-08-14T07:28:24.478Z,1.83
2022-08-14T07:30:56.259Z,2.40
2022-08-14T07:33:29.493Z,1.67
2022-08-14T07:36:00.944Z,2.03
2022-08-14T07:38:34.024Z,1.50
2022-08-14T07:41:11.757Z,1.77
2022-08-14T07:43:44.148Z,2.10
2022-08-14T07:46:16.239Z,2.20
2022-08-14T07:48:49.719Z,1.60
2022-08-14T07:51:22.856Z,2.10
2022-08-14T07:53:56.853Z,1.53
2022-08-14T07:56:48.238Z,2.20
2022-08-14T07:59:18.268Z,1.73
2022-08-14T08:01:47.931Z,1.50
2022-08-14T08:04:24.947Z,1.63
2022-08-14T08:06:55.332Z,1.80
2022-08-14T08:09:23.674Z,1.53
2022-08-14T08:11:54.417Z,2.03
2022-08-14T08:14:25.605Z,1.90
2022-08-14T08:16:56.753Z,1.33
2022-08-14T08:19:25.406Z,1.50
2022-08-14T08:21:55.539Z,1.93
2022-08-14T08:24:23.817Z,1.63
2022-08-14T08:26:52.095Z,1.67
2022-08-14T08:29:25.036Z,1.63
2022-08-14T08:32:01.752Z,1.93
2022-08-14T08:34:45.330Z,2.00
2022-08-14T08:37:16.125Z,1.57
2022-08-14T08:40:02.738Z,2.07
2022-08-14T08:42:52.116Z,2.10
2022-08-14T08:45:20.642Z,2.03
2022-08-14T08:47:49.140Z,2.33
2022-08-14T08:50:31.058Z,2.87
2022-08-14T08:53:02.018Z,3.10
2022-08-14T08:55:31.339Z,3.53
2022-08-14T08:57:59.991Z,3.70
2022-08-14T09:00:34.001Z,4.60
2022-08-14T09:03:04.229Z,4.63
2022-08-14T09:05:33.121Z,5.23
2022-08-14T09:08:26.476Z,3.97
2022-08-14T09:11:00.893Z,4.37
2022-08-14T09:13:30.696Z,4.63
2022-08-14T09:16:02.025Z,4.93
2022-08-14T09:18:47.866Z,2.80
2022-08-14T09:21:16.576Z,3.77
2022-08-14T09:24:26.209Z,3.50
2022-08-14T09:26:34.648Z,3.27
2022-08-14T09:29:03.319Z,3.27
2022-08-14T09:31:42.951Z,2.30
2022-08-14T09:34:28.040Z,3.27
2022-08-14T09:37:09.743Z,3.13
2022-08-14T09:39:45.731Z,2.70
2022-08-14T09:42:45.213Z,2.00
2022-08-14T09:45:12.329Z,2.33
2022-08-14T09:47:44.703Z,2.53
2022-08-14T09:50:25.712Z,2.30
2022-08-14T09:52:57.141Z,1.90
2022-08-14T09:55:28.176Z,2.43
2022-08-14T09:58:06.062Z,2.10
2022-08-14T10:00:41.121Z,1.70
2022-08-14T10:03:10.132Z,2.00
2022-08-14T10:05:39.784Z,1.63
2022-08-14T10:08:25.437Z,1.97
2022-08-14T10:11:02.726Z,1.63
2022-08-14T10:13:42.860Z,1.83
2022-08-14T10:16:25.885Z,1.63
2022-08-14T10:19:09.606Z,1.23
2022-08-14T10:21:38.678Z,1.60
2022-08-14T10:24:24.413Z,1.50
2022-08-14T10:27:06.511Z,1.20
2022-08-14T10:29:35.321Z,1.37
2022-08-14T10:32:17.928Z,1.33
2022-08-14T10:34:46.706Z,1.27
2022-08-14T10:37:22.943Z,1.50
2022-08-14T10:40:05.566Z,1.40
2022-08-14T10:42:40.918Z,1.27
2022-08-14T10:45:21.211Z,1.70
2022-08-14T10:48:08.704Z,1.23
2022-08-14T10:50:39.239Z,1.73
2022-08-14T10:53:08.011Z,1.10
2022-08-14T10:55:39.588Z,1.67
2022-08-14T10:58:17.613Z,1.40
2022-08-14T11:00:57.817Z,1.37
2022-08-14T11:03:56.265Z,1.43
2022-08-14T11:06:18.732Z,1.30
2022-08-14T11:08:47.224Z,1.27
2022-08-14T11:11:19.181Z,1.50
2022-08-14T11:13:50.716Z,1.20
2022-08-14T11:16:19.606Z,0.93
2022-08-14T11:18:50.649Z,1.40
2022-08-14T11:21:23.167Z,1.17
2022-08-14T11:23:53.650Z,1.50
2022-08-14T11:26:25.469Z,1.40
2022-08-14T11:28:56.776Z,1.47
2022-08-14T11:31:38.721Z,1.60
2022-08-14T11:34:10.289Z,1.20
2022-08-14T11:37:03.932Z,1.27
2022-08-14T11:39:45.601Z,1.40
2022-08-14T11:42:57.774Z,1.43
2022-08-14T11:45:17.127Z,1.60
2022-08-14T11:48:12.546Z,1.60
2022-08-14T11:50:37.654Z,1.40
2022-08-14T11:53:07.803Z,1.37
2022-08-14T11:55:38.513Z,1.70
2022-08-14T11:58:08.780Z,1.50
2022-08-14T12:00:48.484Z,1.47
2022-08-14T12:03:27.204Z,1.30
2022-08-14T12:06:06.425Z,1.63
2022-08-14T12:08:52.837Z,1.43
2022-08-14T12:11:21.524Z,1.30
2022-08-14T12:13:55.827Z,1.50
2022-08-14T12:16:26.060Z,1.40
2022-08-14T12:18:54.380Z,1.10
2022-08-14T12:21:23.797Z,1.40
2022-08-14T12:24:02.393Z,1.20
2022-08-14T12:26:38.983Z,1.00
2022-08-14T12:29:09.129Z,1.00
2022-08-14T12:31:44.739Z,1.00
2022-08-14T12:34:20.458Z,1.10
2022-08-14T12:36:51.248Z,1.27
2022-08-14T12:39:20.238Z,1.00
2022-08-14T12:41:53.774Z,1.00
2022-08-14T12:44:30.434Z,0.87
2022-08-14T12:47:06.128Z,1.10
2022-08-14T12:49:35.011Z,0.90
2022-08-14T12:52:03.888Z,1.20
2022-08-14T12:54:32.618Z,0.80
2022-08-14T12:57:04.744Z,1.60
2022-08-14T12:59:37.309Z,1.00
2022-08-14T13:02:21.839Z,1.00
2022-08-14T13:04:55.766Z,1.30
2022-08-14T13:07:25.030Z,1.20
2022-08-14T13:09:56.243Z,1.10
2022-08-14T13:12:32.243Z,1.27
2022-08-14T13:15:08.935Z,0.97
2022-08-14T13:17:41.093Z,0.90
2022-08-14T13:20:23.455Z,1.10
2022-08-14T13:22:53.210Z,1.20
2022-08-14T13:25:21.770Z,1.17
2022-08-14T13:27:51.287Z,1.10
2022-08-14T13:30:24.563Z,1.67
2022-08-14T13:32:54.569Z,1.23
2022-08-14T13:35:26.452Z,1.30
2022-08-14T13:37:54.518Z,1.20
2022-08-14T13:40:26.537Z,1.17
2022-08-14T13:42:57.231Z,1.27
2022-08-14T13:45:33.895Z,1.37
2022-08-14T13:48:27.439Z,1.40
2022-08-14T13:51:01.625Z,1.20
2022-08-14T13:53:33.449Z,1.10
2022-08-14T13:56:01.594Z,1.50
2022-08-14T13:58:34.481Z,1.07
2022-08-14T14:01:04.494Z,1.83
2022-08-14T14:03:37.724Z,1.40
2022-08-14T14:06:06.109Z,1.20
2022-08-14T14:08:43.693Z,1.70
2022-08-14T14:11:16.483Z,1.50
2022-08-14T14:13:45.733Z,1.50
2022-08-14T14:16:15.443Z,1.60
2022-08-14T14:18:57.497Z,1.57
2022-08-14T14:21:28.769Z,1.40
2022-08-14T14:23:57.208Z,1.53
2022-08-14T14:26:25.180Z,1.30
2022-08-14T14:28:56.934Z,1.33
2022-08-14T14:31:30.287Z,1.30
2022-08-14T14:34:07.773Z,1.37
2022-08-14T14:36:52.383Z,1.23
2022-08-14T14:39:23.204Z,1.10
2022-08-14T14:41:56.243Z,1.53
2022-08-14T14:44:25.419Z,1.60
2022-08-14T14:46:55.036Z,1.50
2022-08-14T14:49:41.780Z,1.27
2022-08-14T14:52:26.502Z,1.43
2022-08-14T14:54:56.390Z,1.30
2022-08-14T14:57:28.991Z,1.30
2022-08-14T15:00:02.744Z,1.60
2022-08-14T15:02:36.695Z,1.37
2022-08-14T15:05:08.187Z,1.40
2022-08-14T15:07:36.309Z,1.27
2022-08-14T15:10:27.292Z,1.30
2022-08-14T15:12:58.024Z,1.50
2022-08-14T15:15:32.697Z,1.23
2022-08-14T15:18:01.594Z,1.60
2022-08-14T15:20:31.518Z,1.50
2022-08-14T15:23:00.977Z,1.50
2022-08-14T15:25:39.926Z,1.50
2022-08-14T15:28:11.675Z,1.60
2022-08-14T15:30:41.105Z,1.33
2022-08-14T15:33:09.696Z,1.30
2022-08-14T15:35:45.850Z,1.20
2022-08-14T15:38:17.872Z,1.50
2022-08-14T15:40:55.911Z,1.70
2022-08-14T15:43:25.491Z,1.40
2022-08-14T15:45:56.160Z,1.30
2022-08-14T15:48:24.204Z,1.25
2022-08-14T15:50:54.010Z,1.30
2022-08-14T15:53:23.396Z,1.60
2022-08-14T15:55:53.053Z,1.30
2022-08-14T15:58:21.243Z,1.57
2022-08-14T16:01:07.061Z,1.40
2022-08-14T16:03:39.833Z,1.40
2022-08-14T16:06:15.712Z,1.40
2022-08-14T16:08:46.427Z,1.10
2022-08-14T16:11:18.378Z,1.37
2022-08-14T16:13:47.732Z,1.63
2022-08-14T16:16:47.187Z,1.60
2022-08-14T16:19:09.838Z,1.27
2022-08-14T16:22:02.708Z,1.27
2022-08-14T16:24:31.119Z,1.40
2022-08-14T16:27:01.030Z,1.50
2022-08-14T16:29:29.938Z,1.00
2022-08-14T16:31:58.916Z,1.40
2022-08-14T16:34:44.027Z,1.40
2022-08-14T16:37:18.373Z,1.33
2022-08-14T16:39:47.248Z,1.60
2022-08-14T16:43:02.356Z,1.73
2022-08-14T16:45:05.429Z,1.67
2022-08-14T16:47:36.307Z,1.63
2022-08-14T16:50:08.941Z,1.40
2022-08-14T16:52:44.196Z,1.40
2022-08-14T16:55:14.270Z,1.63
2022-08-14T16:57:49.906Z,1.60
2022-08-14T17:00:29.093Z,2.17
2022-08-14T17:03:01.374Z,1.60
2022-08-14T17:05:29.349Z,1.73
2022-08-14T17:08:32.996Z,1.40
2022-08-14T17:11:04.678Z,1.60
2022-08-14T17:13:59.591Z,1.37
2022-08-14T17:16:26.491Z,1.03
2022-08-14T17:19:00.806Z,1.30
2022-08-14T17:21:31.535Z,1.40
2022-08-14T17:26:55.149Z,1.60
2022-08-14T17:29:29.531Z,1.27
2022-08-14T17:32:02.267Z,1.60
2022-08-14T17:34:45.657Z,1.40
2022-08-14T17:37:24.744Z,2.07
2022-08-14T17:40:03.328Z,1.30
2022-08-14T17:42:55.618Z,1.60
2022-08-14T17:45:43.440Z,1.80
2022-08-14T17:49:10.043Z,1.90
2022-08-14T17:51:14.858Z,12.97
2022-08-14T17:53:53.315Z,12.10
2022-08-14T17:56:31.453Z,5.93
2022-08-14T17:59:02.108Z,2.10
2022-08-14T18:01:32.195Z,2.10
2022-08-14T18:04:05.617Z,1.53
2022-08-14T18:06:58.483Z,1.53
2022-08-14T18:09:35.161Z,1.67
2022-08-14T18:12:06.385Z,1.60
2022-08-14T18:14:48.807Z,1.70
2022-08-14T18:17:23.083Z,1.73
2022-08-14T18:19:52.514Z,1.20
2022-08-14T18:22:32.284Z,1.90
2022-08-14T18:25:19.163Z,1.40
2022-08-14T18:27:51.768Z,1.80
2022-08-14T18:30:33.137Z,1.57
2022-08-14T18:33:17.920Z,1.33
2022-08-14T18:35:59.837Z,2.27
2022-08-14T18:38:45.640Z,1.60
2022-08-14T18:41:37.204Z,1.97
2022-08-14T18:44:11.167Z,1.93
2022-08-14T18:47:17.934Z,2.23
2022-08-14T18:50:27.536Z,1.70
2022-08-14T18:53:05.756Z,1.70
2022-08-14T18:55:53.047Z,1.50
2022-08-14T18:58:28.259Z,1.40
2022-08-14T19:01:04.458Z,1.30
2022-08-14T19:03:58.116Z,1.70
2022-08-14T19:06:55.745Z,1.73
2022-08-14T19:09:51.449Z,1.60
2022-08-14T19:12:57.656Z,1.40
2022-08-14T19:15:27.927Z,2.10
2022-08-14T19:18:10.853Z,1.43
2022-08-14T19:20:49.030Z,1.60
2022-08-14T19:23:21.961Z,1.80
2022-08-14T19:25:57.984Z,1.40
2022-08-14T19:28:32.052Z,1.83
2022-08-14T19:31:41.925Z,1.63
2022-08-14T19:34:29.671Z,1.40
2022-08-14T19:37:09.894Z,1.67
2022-08-14T19:39:49.176Z,1.87
2022-08-14T19:42:27.792Z,1.53
2022-08-14T19:44:56.868Z,1.80
2022-08-14T19:47:38.788Z,1.60
2022-08-14T19:50:38.699Z,1.47
2022-08-14T19:53:02.508Z,1.47
2022-08-14T19:55:34.358Z,1.50
2022-08-14T19:58:02.697Z,1.50
2022-08-14T20:00:31.556Z,1.43
2022-08-14T20:03:11.156Z,1.50
2022-08-14T20:05:45.617Z,1.20
2022-08-14T20:10:59.134Z,1.40
2022-08-14T20:11:16.021Z,1.70
2022-08-14T20:13:57.863Z,1.70
2022-08-14T20:16:32.102Z,1.70
2022-08-14T20:19:10.004Z,1.70
2022-08-14T20:22:00.725Z,1.47
2022-08-14T20:24:30.958Z,1.67
2022-08-14T20:27:20.974Z,1.73
2022-08-14T20:30:29.203Z,1.43
2022-08-14T20:32:53.594Z,1.57
2022-08-14T20:35:26.338Z,1.60
2022-08-14T20:38:30.454Z,1.60
2022-08-14T20:40:54.721Z,1.50
2022-08-14T20:43:42.088Z,1.93
2022-08-14T20:46:13.453Z,1.50
2022-08-14T20:48:50.943Z,1.83
2022-08-14T20:51:24.177Z,1.53
2022-08-14T20:54:01.738Z,1.90
2022-08-14T20:56:33.119Z,9.70
2022-08-14T20:59:15.425Z,8.00
2022-08-14T21:01:44.994Z,13.07
2022-08-14T21:04:27.760Z,3.93
2022-08-14T21:07:24.876Z,2.07
2022-08-14T21:10:05.713Z,2.03
2022-08-14T21:12:35.841Z,2.00
2022-08-14T21:15:11.194Z,1.73
2022-08-14T21:17:41.509Z,2.00
2022-08-14T21:20:21.336Z,1.97
2022-08-14T21:22:56.496Z,1.67
2022-08-14T21:25:29.053Z,1.90
2022-08-14T21:28:00.796Z,2.30
2022-08-14T21:30:46.485Z,1.50
2022-08-14T21:33:20.563Z,1.67
2022-08-14T21:35:55.092Z,2.00
2022-08-14T21:38:33.511Z,1.60
2022-08-14T21:41:02.824Z,2.17
2022-08-14T21:43:54.559Z,11.07
2022-08-14T21:46:22.513Z,12.97
2022-08-14T21:48:53.746Z,17.33
2022-08-14T21:51:55.405Z,20.73
2022-08-14T21:54:31.834Z,10.17
2022-08-14T21:56:58.614Z,6.77
2022-08-14T21:59:29.759Z,3.17
2022-08-14T22:02:01.440Z,2.47
2022-08-14T22:04:34.750Z,2.30
2022-08-14T22:07:09.391Z,2.40
2022-08-14T22:09:37.471Z,2.10
2022-08-14T22:12:11.485Z,2.43
2022-08-14T22:14:59.823Z,1.63
2022-08-14T22:17:32.464Z,1.80
2022-08-14T22:20:05.010Z,1.97
2022-08-14T22:22:33.225Z,2.03
2022-08-14T22:25:01.348Z,2.63
2022-08-14T22:27:31.276Z,2.07
2022-08-14T22:30:01.004Z,2.23
2022-08-14T22:32:55.981Z,1.70
2022-08-14T22:35:18.360Z,2.13
2022-08-14T22:37:46.420Z,2.27
2022-08-14T22:40:58.904Z,1.87
2022-08-14T22:43:24.201Z,2.00
2022-08-14T22:45:55.693Z,1.87
2022-08-14T22:48:24.185Z,1.70
2022-08-14T22:50:53.896Z,1.90
2022-08-14T22:53:22.042Z,1.67
2022-08-14T22:55:52.323Z,2.17
2022-08-14T22:58:30.211Z,2.10
2022-08-14T23:01:01.224Z,1.87
2022-08-14T23:03:34.204Z,2.40
2022-08-14T23:07:02.156Z,1.90
2022-08-14T23:08:59.798Z,2.20
2022-08-14T23:11:30.277Z,1.97
2022-08-14T23:14:00.920Z,2.37
2022-08-14T23:16:31.289Z,1.60
2022-08-14T23:18:59.238Z,1.80
2022-08-14T23:21:28.933Z,2.00
2022-08-14T23:23:57.342Z,2.00
2022-08-14T23:26:49.539Z,2.30
2022-08-14T23:29:13.515Z,1.97
2022-08-14T23:31:43.890Z,1.90
2022-08-14T23:34:20.843Z,1.90
2022-08-14T23:36:54.327Z,1.77
2022-08-14T23:39:24.379Z,2.00
2022-08-14T23:41:53.720Z,1.83
2022-08-14T23:44:22.476Z,2.13
2022-08-14T23:46:56.544Z,2.17
2022-08-14T23:49:25.363Z,2.07
2022-08-14T23:52:49.717Z,1.93
2022-08-14T23:54:49.381Z,2.00
2022-08-14T23:57:19.181Z,2.10
2022-08-14T23:59:54.439Z,2.23
